MSC Fabiola — A8VL5 — position and weather

sailwx.info

Track history (hours):
 
Tides and Currents Weather Stations Pressure Air Temp Water Temp Dewpoint Dewpoint Depression Visibility Wind Speed Wind Dir Waves Ship Positions

MSC Fabiola

Last reported at 2015-Mar-25 23:13 UTC. Time now 2015-Mar-26 23:48 UTC.
Position N 01°55' E 102°19'.

Length 366 m; draft 14.4 m.

Type: Ship. MMSI: 636092019.

Date/timePositionNaut miles runAvg speedWind from/ knotsBaromVisibWave heightAir tempDewpointWater temp
2015-Mar-25 23:13N 01°55' E 102°19'1420.7
2015-Mar-25 22:33N 01°50' E 102°31'2120.8
2015-Mar-25 21:33N 01°40' E 102°50'5817.4
2015-Mar-25 18:13N 01°13' E 103°41'6 8.7
2015-Mar-25 17:33N 01°16' E 103°46'0 0.1
2015-Mar-25 14:11N 01°16' E 103°46'0 0.0
2015-Mar-25 13:26N 01°16' E 103°46'0 0.0
2015-Mar-25 12:17N 01°16' E 103°46'0 0.0
2015-Mar-25 11:23N 01°16' E 103°46'0 0.0
2015-Mar-25 10:23N 01°16' E 103°46'0 0.0
2015-Mar-24 18:32N 01°16' E 103°46'0 0.0
2015-Mar-24 09:30N 01°16' E 103°46'7 6.3
2015-Mar-24 08:25N 01°12' E 103°51'6 6.5
2015-Mar-24 07:33N 01°14' E 103°57'9 8.7
2015-Mar-24 06:33N 01°16' E 104°05'  
2015-Mar-21 06:33N 22°07' E 114°20'1513.5
2015-Mar-21 05:26N 22°16' E 114°06'1211.8
2015-Mar-21 04:23N 22°22' E 113°54'3 4.2
2015-Mar-21 03:34N 22°25' E 113°53'2 1.1
2015-Mar-21 01:20N 22°28' E 113°53'0 0.0
2015-Mar-20 18:26N 22°28' E 113°53'0 0.1
2015-Mar-20 15:19N 22°28' E 113°53'4 5.7
2015-Mar-20 14:33N 22°23' E 113°54'1110.6
2015-Mar-20 13:32N 22°20' E 114°05'13 9.6
2015-Mar-20 12:11N 22°10' E 114°13'6 9.9
2015-Mar-20 11:33N 22°09' E 114°20'1716.9
2015-Mar-20 10:32N 22°10' E 114°38'21419.5
2015-Mar-19 23:33N 23°47' E 118°05'1919.2
2015-Mar-19 22:33N 24°03' E 118°18'1716.6
2015-Mar-19 21:33N 24°18' E 118°12'1212.2
2015-Mar-19 20:33N 24°26' E 118°02'0 0.2
2015-Mar-19 19:28N 24°26' E 118°02'0 0.0
2015-Mar-19 17:28N 24°26' E 118°02'0 0.0
2015-Mar-19 16:28N 24°26' E 118°02'0 0.0
2015-Mar-19 15:22N 24°26' E 118°02'0 0.0
2015-Mar-19 14:11N 24°26' E 118°02'0 0.0
2015-Mar-19 08:05N 24°26' E 118°02'4 6.8
2015-Mar-19 07:31N 24°25' E 118°06'7 6.6
2015-Mar-19 06:32N 24°20' E 118°11'9 7.8
2015-Mar-19 05:26N 24°14' E 118°17'6 1.2
2015-Mar-19 00:05N 24°15' E 118°24'0 0.0
2015-Mar-18 19:23N 24°15' E 118°24'0 0.1
2015-Mar-18 18:11N 24°15' E 118°24'0 0.1
2015-Mar-18 17:23N 24°15' E 118°24'0 0.0
2015-Mar-18 15:05N 24°15' E 118°24'0 0.0
2015-Mar-18 14:05N 24°15' E 118°24'0 0.0
2015-Mar-18 13:11N 24°15' E 118°24'0 0.0
2015-Mar-18 10:23N 24°15' E 118°24'0 0.0
2015-Mar-18 09:29N 24°15' E 118°24'0 0.0
2015-Mar-18 04:29N 24°15' E 118°24'0 0.1
2015-Mar-18 02:17N 24°15' E 118°24'0 0.0
2015-Mar-17 22:05N 24°15' E 118°24'0 0.0
2015-Mar-17 20:29N 24°15' E 118°24'0 0.0
2015-Mar-17 18:29N 24°15' E 118°24'0 0.0
2015-Mar-17 17:23N 24°15' E 118°24'0 0.0
2015-Mar-17 15:29N 24°15' E 118°24'0 0.1
2015-Mar-17 14:29N 24°15' E 118°24'15 2.8
2015-Mar-17 09:07N 24°18' E 118°40'710.8
2015-Mar-17 08:29N 24°19' E 118°48'1110.9
2015-Mar-17 07:29N 24°22' E 118°59'  
Track history (hours):
 
Tides and Currents Weather Stations Pressure Air Temp Water Temp Dewpoint Dewpoint Depression Visibility Wind Speed Wind Dir Waves Ship Positions

MSC Fabiola

Last reported at 2015-Mar-25 23:13 UTC. Time now 2015-Mar-26 23:48 UTC.
Position N 01°55' E 102°19'.

Length 366 m; draft 14.4 m.

Type: Ship. MMSI: 636092019.

Date/timePositionNaut miles runAvg speedWind from/ knotsBaromVisibWave heightAir tempDewpointWater temp
2015-Mar-25 23:13N 01°55' E 102°19'1420.7
2015-Mar-25 22:33N 01°50' E 102°31'2120.8
2015-Mar-25 21:33N 01°40' E 102°50'5817.4
2015-Mar-25 18:13N 01°13' E 103°41'6 8.7
2015-Mar-25 17:33N 01°16' E 103°46'0 0.1
2015-Mar-25 14:11N 01°16' E 103°46'0 0.0
2015-Mar-25 13:26N 01°16' E 103°46'0 0.0
2015-Mar-25 12:17N 01°16' E 103°46'0 0.0
2015-Mar-25 11:23N 01°16' E 103°46'0 0.0
2015-Mar-25 10:23N 01°16' E 103°46'0 0.0
2015-Mar-24 18:32N 01°16' E 103°46'0 0.0
2015-Mar-24 09:30N 01°16' E 103°46'7 6.3
2015-Mar-24 08:25N 01°12' E 103°51'6 6.5
2015-Mar-24 07:33N 01°14' E 103°57'9 8.7
2015-Mar-24 06:33N 01°16' E 104°05'  
2015-Mar-21 06:33N 22°07' E 114°20'1513.5
2015-Mar-21 05:26N 22°16' E 114°06'1211.8
2015-Mar-21 04:23N 22°22' E 113°54'3 4.2
2015-Mar-21 03:34N 22°25' E 113°53'2 1.1
2015-Mar-21 01:20N 22°28' E 113°53'0 0.0
2015-Mar-20 18:26N 22°28' E 113°53'0 0.1
2015-Mar-20 15:19N 22°28' E 113°53'4 5.7
2015-Mar-20 14:33N 22°23' E 113°54'1110.6
2015-Mar-20 13:32N 22°20' E 114°05'13 9.6
2015-Mar-20 12:11N 22°10' E 114°13'6 9.9
2015-Mar-20 11:33N 22°09' E 114°20'1716.9
2015-Mar-20 10:32N 22°10' E 114°38'21419.5
2015-Mar-19 23:33N 23°47' E 118°05'1919.2
2015-Mar-19 22:33N 24°03' E 118°18'1716.6
2015-Mar-19 21:33N 24°18' E 118°12'1212.2
2015-Mar-19 20:33N 24°26' E 118°02'0 0.2
2015-Mar-19 19:28N 24°26' E 118°02'0 0.0
2015-Mar-19 17:28N 24°26' E 118°02'0 0.0
2015-Mar-19 16:28N 24°26' E 118°02'0 0.0
2015-Mar-19 15:22N 24°26' E 118°02'0 0.0
2015-Mar-19 14:11N 24°26' E 118°02'0 0.0
2015-Mar-19 08:05N 24°26' E 118°02'4 6.8
2015-Mar-19 07:31N 24°25' E 118°06'7 6.6
2015-Mar-19 06:32N 24°20' E 118°11'9 7.8
2015-Mar-19 05:26N 24°14' E 118°17'6 1.2
2015-Mar-19 00:05N 24°15' E 118°24'0 0.0
2015-Mar-18 19:23N 24°15' E 118°24'0 0.1
2015-Mar-18 18:11N 24°15' E 118°24'0 0.1
2015-Mar-18 17:23N 24°15' E 118°24'0 0.0
2015-Mar-18 15:05N 24°15' E 118°24'0 0.0
2015-Mar-18 14:05N 24°15' E 118°24'0 0.0
2015-Mar-18 13:11N 24°15' E 118°24'0 0.0
2015-Mar-18 10:23N 24°15' E 118°24'0 0.0
2015-Mar-18 09:29N 24°15' E 118°24'0 0.0
2015-Mar-18 04:29N 24°15' E 118°24'0 0.1
2015-Mar-18 02:17N 24°15' E 118°24'0 0.0
2015-Mar-17 22:05N 24°15' E 118°24'0 0.0
2015-Mar-17 20:29N 24°15' E 118°24'0 0.0
2015-Mar-17 18:29N 24°15' E 118°24'0 0.0
2015-Mar-17 17:23N 24°15' E 118°24'0 0.0
2015-Mar-17 15:29N 24°15' E 118°24'0 0.1
2015-Mar-17 14:29N 24°15' E 118°24'15 2.8
2015-Mar-17 09:07N 24°18' E 118°40'710.8
2015-Mar-17 08:29N 24°19' E 118°48'1110.9
2015-Mar-17 07:29N 24°22' E 118°59'  

Dump ship's entire track history